Time;durP1;ratioP1;P1;durP2;ratioP2;P2;SDS_P1;SDS_P2;PMS_P1;PMS_P2;Temp;Humidity;BMP_temperature;BMP_pressure;BME280_temperature;BME280_humidity;BME280_pressure;Samples;Min_cycle;Max_cycle;Signal;HPM_P1;HPM_P2
2022/09/20 00:00:46;;;;;;;13.50;6.20;;;8.80;99.90;;;;;;5053802;28;20546;-68
2022/09/20 00:03:13;;;;;;;13.37;5.67;;;8.80;99.90;;;;;;5054033;28;20175;-68
2022/09/20 00:05:40;;;;;;;17.87;5.70;;;8.80;99.90;;;;;;5052499;28;20646;-68
2022/09/20 00:08:10;;;;;;;10.00;5.60;;;8.70;99.90;;;;;;5093826;28;20251;-69
2022/09/20 00:10:38;;;;;;;9.87;5.40;;;8.70;99.90;;;;;;5093875;28;20177;-68
2022/09/20 00:13:06;;;;;;;14.97;6.07;;;8.70;99.90;;;;;;5059068;28;20708;-68
2022/09/20 00:15:32;;;;;;;10.47;6.47;;;8.70;99.90;;;;;;5053349;28;20252;-68
2022/09/20 00:17:58;;;;;;;15.27;5.97;;;8.70;99.90;;;;;;5053913;28;20183;-69
2022/09/20 00:20:25;;;;;;;14.67;5.60;;;8.70;99.90;;;;;;5053824;28;20181;-68
2022/09/20 00:22:51;;;;;;;17.90;6.57;;;8.60;99.90;;;;;;5054373;28;20531;-68
2022/09/20 00:25:18;;;;;;;18.13;6.03;;;8.60;99.90;;;;;;5053531;28;20202;-68
2022/09/20 00:27:45;;;;;;;16.97;6.13;;;8.60;99.90;;;;;;5053474;28;20701;-68
2022/09/20 00:30:12;;;;;;;16.53;6.63;;;8.60;99.90;;;;;;5053171;28;20194;-68
2022/09/20 00:32:39;;;;;;;13.47;6.40;;;8.60;99.90;;;;;;5053740;28;20210;-68
2022/09/20 00:35:11;;;;;;;17.37;6.37;;;8.50;99.90;;;;;;5053452;28;20666;-68
2022/09/20 00:37:39;;;;;;;10.27;5.73;;;8.50;99.90;;;;;;5085912;28;20559;-68
2022/09/20 00:40:08;;;;;;;16.00;6.90;;;8.50;99.90;;;;;;5093567;28;20209;-68
2022/09/20 00:42:34;;;;;;;13.33;6.10;;;8.50;99.90;;;;;;5066910;28;20193;-68
2022/09/20 00:45:13;;;;;;;17.03;6.57;;;8.50;99.90;;;;;;5053033;28;20178;-68
2022/09/20 00:47:57;;;;;;;16.77;6.87;;;8.50;99.90;;;;;;5053787;28;20166;-68
2022/09/20 00:50:34;;;;;;;12.60;6.40;;;8.50;99.90;;;;;;5053254;28;20685;-68
2022/09/20 00:53:32;;;;;;;15.13;6.73;;;8.50;99.90;;;;;;5052094;28;20242;-68
2022/09/20 00:56:15;;;;;;;16.07;6.83;;;8.50;99.90;;;;;;5053208;28;20205;-68
2022/09/20 00:59:04;;;;;;;16.43;7.17;;;8.50;99.90;;;;;;5052970;28;20198;-68
2022/09/20 01:01:31;;;;;;;20.63;6.53;;;8.60;99.90;;;;;;5057510;28;20241;-68
2022/09/20 01:03:58;;;;;;;14.23;6.90;;;8.60;99.90;;;;;;5057047;28;20190;-68
2022/09/20 01:06:24;;;;;;;15.30;7.03;;;8.50;99.90;;;;;;5069868;28;20622;-68
2022/09/20 01:08:53;;;;;;;15.33;7.23;;;8.50;99.90;;;;;;5095948;28;20204;-68
2022/09/20 01:11:19;;;;;;;16.20;6.80;;;8.60;99.90;;;;;;5091509;28;20197;-68
2022/09/20 01:13:44;;;;;;;12.97;6.43;;;8.60;99.90;;;;;;5056854;28;20659;-68
2022/09/20 01:16:12;;;;;;;14.10;6.50;;;8.60;99.90;;;;;;5056665;28;20647;-68
2022/09/20 01:18:40;;;;;;;16.93;7.63;;;8.50;99.90;;;;;;5056796;28;20198;-68
2022/09/20 01:21:07;;;;;;;18.80;7.17;;;8.50;99.90;;;;;;5056726;28;20185;-68
2022/09/20 01:23:59;;;;;;;16.27;6.97;;;8.50;99.90;;;;;;5057059;28;20167;-68
2022/09/20 01:26:40;;;;;;;13.53;6.83;;;8.50;99.90;;;;;;5056809;28;20174;-68
2022/09/20 01:29:25;;;;;;;15.43;6.97;;;8.60;99.90;;;;;;5054997;28;20210;-68
2022/09/20 01:31:59;;;;;;;13.20;7.00;;;8.60;99.90;;;;;;5055360;28;20571;-68
2022/09/20 01:34:35;;;;;;;12.13;6.67;;;8.60;99.90;;;;;;5056775;28;20166;-68
2022/09/20 01:37:24;;;;;;;9.93;6.13;;;8.60;99.90;;;;;;5079113;28;20629;-68
2022/09/20 01:40:04;;;;;;;12.00;6.43;;;8.60;99.90;;;;;;5095321;28;20346;-68
2022/09/20 01:42:36;;;;;;;17.30;6.87;;;8.50;99.90;;;;;;5071282;28;20170;-68
2022/09/20 01:45:40;;;;;;;16.20;6.50;;;8.50;99.90;;;;;;5054958;28;20185;-68
2022/09/20 01:48:32;;;;;;;14.13;6.67;;;8.50;99.90;;;;;;5055258;28;20209;-68
2022/09/20 01:51:21;;;;;;;14.80;6.20;;;8.50;99.90;;;;;;5054965;28;20185;-68
2022/09/20 01:54:04;;;;;;;13.33;6.20;;;8.50;99.90;;;;;;5055361;28;20260;-68
2022/09/20 01:57:01;;;;;;;15.13;6.43;;;8.50;99.90;;;;;;5054889;28;20288;-68
2022/09/20 01:59:57;;;;;;;10.27;6.40;;;8.50;99.90;;;;;;5054696;28;20673;-68
2022/09/20 02:03:06;;;;;;;16.77;6.00;;;8.50;99.90;;;;;;5056425;28;20159;-68
2022/09/20 02:05:58;;;;;;;10.03;6.20;;;8.50;99.90;;;;;;5056487;28;20225;-68
2022/09/20 02:08:43;;;;;;;10.60;6.10;;;8.50;99.90;;;;;;5054838;28;20195;-68
2022/09/20 02:11:15;;;;;;;14.67;6.97;;;8.50;99.90;;;;;;5054213;28;20654;-69
2022/09/20 02:13:50;;;;;;;16.30;6.87;;;8.60;99.90;;;;;;5055795;28;20167;-68
2022/09/20 02:16:43;;;;;;;15.87;6.70;;;8.50;99.90;;;;;;5055584;28;20198;-68
2022/09/20 02:19:09;;;;;;;14.80;6.50;;;8.60;99.90;;;;;;5054441;28;20198;-68
2022/09/20 02:21:35;;;;;;;11.43;6.10;;;8.60;99.90;;;;;;5054371;28;20256;-70
2022/09/20 02:24:16;;;;;;;12.57;6.50;;;8.60;99.90;;;;;;5054410;28;20186;-68
2022/09/20 02:27:02;;;;;;;17.37;6.83;;;8.60;99.90;;;;;;5055642;28;20216;-68
2022/09/20 02:29:45;;;;;;;19.20;6.60;;;8.70;99.90;;;;;;5055798;28;20607;-68
2022/09/20 02:32:28;;;;;;;14.97;6.80;;;8.70;99.90;;;;;;5055897;28;20158;-68
2022/09/20 02:35:17;;;;;;;15.90;7.00;;;8.70;99.90;;;;;;5054222;28;20300;-68
2022/09/20 02:38:25;;;;;;;15.30;6.97;;;8.70;99.90;;;;;;5089810;28;20183;-68
2022/09/20 02:41:20;;;;;;;14.87;6.90;;;8.70;99.90;;;;;;5095041;28;20209;-68
2022/09/20 02:44:04;;;;;;;9.90;6.53;;;8.80;99.90;;;;;;5036688;28;20551;-68
2022/09/20 02:46:37;;;;;;;18.73;6.63;;;8.80;99.90;;;;;;5053749;28;20589;-68
2022/09/20 02:49:07;;;;;;;20.97;7.63;;;8.80;99.90;;;;;;5055144;28;20194;-69
2022/09/20 02:51:48;;;;;;;17.20;7.23;;;8.80;99.90;;;;;;5055039;28;20178;-69
2022/09/20 02:54:47;;;;;;;17.90;7.00;;;8.80;99.90;;;;;;5053832;28;20198;-69
2022/09/20 02:57:16;;;;;;;13.57;6.23;;;8.80;99.90;;;;;;5057634;28;20213;-69
2022/09/20 03:00:05;;;;;;;17.10;7.30;;;8.90;99.90;;;;;;5073367;28;20684;-69
2022/09/20 03:02:39;;;;;;;10.70;6.90;;;8.90;99.90;;;;;;5075196;28;20705;-69
2022/09/20 03:05:34;;;;;;;12.93;7.37;;;8.90;99.90;;;;;;5074950;28;20652;-70
2022/09/20 03:08:24;;;;;;;13.93;7.37;;;8.90;99.90;;;;;;5094313;28;20185;-69
2022/09/20 03:11:03;;;;;;;17.63;7.33;;;8.90;99.90;;;;;;5093624;28;20553;-69
2022/09/20 03:14:04;;;;;;;12.20;6.73;;;8.90;99.90;;;;;;5054769;28;20170;-69
2022/09/20 03:16:47;;;;;;;20.43;7.43;;;8.90;99.90;;;;;;5052902;28;20216;-69
2022/09/20 03:19:32;;;;;;;17.10;7.37;;;8.90;99.90;;;;;;5053559;28;20201;-69
2022/09/20 03:22:03;;;;;;;16.13;7.40;;;8.90;99.90;;;;;;5054501;28;20306;-69
2022/09/20 03:24:39;;;;;;;19.17;8.20;;;8.90;99.90;;;;;;5054427;28;20176;-69
2022/09/20 03:27:17;;;;;;;18.23;7.57;;;8.80;99.90;;;;;;5054587;28;20189;-69
2022/09/20 03:29:59;;;;;;;12.93;7.63;;;8.90;99.90;;;;;;5074191;28;20670;-69
2022/09/20 03:32:34;;;;;;;16.20;6.77;;;8.90;99.90;;;;;;5075285;28;20174;-69
2022/09/20 03:35:15;;;;;;;18.53;8.03;;;8.90;99.90;;;;;;5074814;28;20189;-69
2022/09/20 03:37:58;;;;;;;11.70;6.47;;;8.80;99.90;;;;;;5091301;28;20177;-69
2022/09/20 03:40:36;;;;;;;15.40;7.53;;;8.80;99.90;;;;;;5094766;28;20185;-69
2022/09/20 03:43:28;;;;;;;18.67;7.40;;;8.80;99.90;;;;;;5059632;28;20276;-68
2022/09/20 03:46:16;;;;;;;14.57;7.80;;;8.70;99.90;;;;;;5054198;28;20556;-69
2022/09/20 03:49:31;;;;;;;18.90;7.70;;;8.70;99.90;;;;;;5053476;28;20194;-68
2022/09/20 03:52:21;;;;;;;14.47;7.67;;;8.60;99.90;;;;;;5050929;28;20186;-69
2022/09/20 03:54:56;;;;;;;16.67;8.07;;;8.60;99.90;;;;;;5054008;28;20201;-69
2022/09/20 03:57:48;;;;;;;16.30;7.73;;;8.60;99.90;;;;;;5052579;28;20209;-69
2022/09/20 04:00:40;;;;;;;13.40;7.50;;;8.50;99.90;;;;;;5044436;28;20206;-69
2022/09/20 04:03:21;;;;;;;14.67;8.07;;;8.50;99.90;;;;;;5048680;28;20212;-69
2022/09/20 04:05:46;;;;;;;16.97;8.10;;;8.40;99.90;;;;;;5055771;28;20692;-69
2022/09/20 04:08:12;;;;;;;16.27;7.90;;;8.40;99.90;;;;;;5094190;28;20177;-69
2022/09/20 04:11:02;;;;;;;13.70;7.60;;;8.40;99.90;;;;;;5094044;28;20218;-69
2022/09/20 04:14:10;;;;;;;16.80;7.60;;;8.40;99.90;;;;;;5053720;28;20170;-69
2022/09/20 04:16:50;;;;;;;17.47;8.70;;;8.40;99.90;;;;;;5053003;28;20214;-69
2022/09/20 04:19:40;;;;;;;14.63;8.47;;;8.40;99.90;;;;;;5054021;28;20240;-69
2022/09/20 04:22:07;;;;;;;18.37;7.73;;;8.40;99.90;;;;;;5054001;28;20187;-69
2022/09/20 04:24:58;;;;;;;12.07;8.10;;;8.40;99.90;;;;;;5053757;28;20167;-69
2022/09/20 04:28:01;;;;;;;15.80;8.33;;;8.40;99.90;;;;;;5058182;28;20181;-69
2022/09/20 04:30:30;;;;;;;16.27;8.20;;;8.40;99.90;;;;;;5072580;28;20174;-69
2022/09/20 04:33:00;;;;;;;14.90;7.17;;;8.40;99.90;;;;;;5073921;28;20166;-69
2022/09/20 04:38:25;;;;;;;18.67;9.13;;;8.40;99.90;;;;;;5053859;28;20189;-69
2022/09/20 04:40:54;;;;;;;18.37;8.60;;;8.30;99.90;;;;;;5053356;28;20188;-69
2022/09/20 04:44:05;;;;;;;21.93;9.67;;;8.30;99.90;;;;;;5053381;28;20706;-69
2022/09/20 04:46:48;;;;;;;19.07;9.47;;;8.30;99.90;;;;;;5052197;28;20187;-69
2022/09/20 04:50:05;;;;;;;20.40;9.93;;;8.40;99.90;;;;;;5053295;28;20274;-69
2022/09/20 04:52:52;;;;;;;16.13;10.57;;;8.50;99.90;;;;;;5053620;28;20155;-69
2022/09/20 04:55:36;;;;;;;24.40;11.60;;;8.50;99.90;;;;;;5051924;28;20343;-69
2022/09/20 04:58:42;;;;;;;19.17;9.93;;;8.60;99.90;;;;;;5052199;28;20187;-69
2022/09/20 05:01:18;;;;;;;24.40;12.20;;;8.60;99.90;;;;;;5051659;28;20189;-68
2022/09/20 05:03:55;;;;;;;26.93;11.53;;;8.60;99.90;;;;;;5053428;28;20181;-69
2022/09/20 05:06:49;;;;;;;20.80;11.97;;;8.60;99.90;;;;;;5064433;28;20184;-69
2022/09/20 05:09:42;;;;;;;32.87;13.73;;;8.60;99.90;;;;;;5093345;28;20599;-69
2022/09/20 05:12:20;;;;;;;28.20;14.43;;;8.60;99.90;;;;;;5073791;28;20182;-69
2022/09/20 05:14:58;;;;;;;29.03;13.17;;;8.60;99.90;;;;;;5051496;28;20236;-69
2022/09/20 05:17:43;;;;;;;28.40;13.13;;;8.60;99.90;;;;;;5053461;28;20174;-69
2022/09/20 05:20:33;;;;;;;29.50;13.73;;;8.60;99.90;;;;;;5052030;28;20665;-69
2022/09/20 05:23:18;;;;;;;25.53;13.00;;;8.60;99.90;;;;;;5052601;28;20170;-68
2022/09/20 05:26:16;;;;;;;26.73;12.73;;;8.60;99.90;;;;;;5052011;28;20174;-68
2022/09/20 05:28:53;;;;;;;23.53;12.17;;;8.60;99.90;;;;;;5053003;28;20237;-69
2022/09/20 05:31:40;;;;;;;22.03;13.03;;;8.60;99.90;;;;;;5051369;28;20166;-68
2022/09/20 05:34:17;;;;;;;23.67;13.27;;;8.60;99.90;;;;;;5051678;28;20175;-69
2022/09/20 05:36:52;;;;;;;27.83;12.53;;;8.60;99.90;;;;;;5070670;28;20200;-69
2022/09/20 05:39:35;;;;;;;28.57;13.50;;;8.70;99.90;;;;;;5093260;28;20263;-69
2022/09/20 05:42:18;;;;;;;31.33;14.13;;;8.70;99.90;;;;;;5075838;28;20183;-68
2022/09/20 05:45:06;;;;;;;23.80;12.97;;;8.70;99.90;;;;;;5052975;28;20159;-69
2022/09/20 05:48:21;;;;;;;25.27;12.37;;;8.80;99.90;;;;;;5056371;28;20159;-69
2022/09/20 05:51:11;;;;;;;21.57;13.27;;;8.80;99.90;;;;;;5037586;28;20171;-69
2022/09/20 05:54:01;;;;;;;33.20;14.63;;;8.80;99.90;;;;;;5056237;28;20555;-69
2022/09/20 05:56:33;;;;;;;25.27;13.90;;;8.80;99.90;;;;;;5054756;28;20202;-69
2022/09/20 05:59:20;;;;;;;26.60;14.43;;;8.90;99.90;;;;;;5056227;28;20198;-71
2022/09/20 06:02:07;;;;;;;23.60;13.63;;;8.90;99.90;;;;;;5054639;28;20192;-70
2022/09/20 06:04:44;;;;;;;26.60;14.23;;;8.90;99.90;;;;;;5054864;28;20175;-70
2022/09/20 06:07:23;;;;;;;24.00;13.37;;;8.90;99.90;;;;;;5079624;28;20550;-70
2022/09/20 06:10:07;;;;;;;24.80;14.63;;;8.90;99.90;;;;;;5095318;28;20554;-71
2022/09/20 06:12:42;;;;;;;25.37;14.53;;;9.00;99.90;;;;;;5068312;28;20186;-70
2022/09/20 06:15:32;;;;;;;32.07;14.20;;;9.00;99.90;;;;;;5055486;28;20185;-70
2022/09/20 06:18:09;;;;;;;29.93;15.03;;;9.10;99.90;;;;;;5056099;28;20620;-71
2022/09/20 06:20:51;;;;;;;24.20;14.63;;;9.10;99.90;;;;;;5055710;28;20662;-71
2022/09/20 06:23:18;;;;;;;24.33;14.53;;;9.20;99.90;;;;;;5055991;28;20204;-71
2022/09/20 06:25:55;;;;;;;29.83;13.97;;;9.20;99.90;;;;;;5055774;28;20253;-70
2022/09/20 06:28:27;;;;;;;26.03;14.73;;;9.20;99.90;;;;;;5055717;28;20202;-71
2022/09/20 06:30:54;;;;;;;25.93;14.53;;;9.30;99.90;;;;;;5055523;28;20171;-71
2022/09/20 06:33:27;;;;;;;27.87;14.10;;;9.40;99.90;;;;;;5054300;28;20212;-71
2022/09/20 06:42:00;;;;;;;30.23;15.00;;;9.40;99.90;;;;;;5078720;28;20201;-71
2022/09/20 06:44:26;;;;;;;25.23;14.20;;;9.50;99.90;;;;;;5053958;28;20185;-71
2022/09/20 06:46:54;;;;;;;26.20;15.23;;;9.60;99.90;;;;;;5055481;28;20174;-71
2022/09/20 06:49:21;;;;;;;25.63;15.07;;;9.70;99.90;;;;;;5054445;28;20207;-71
2022/09/20 06:51:49;;;;;;;26.00;13.77;;;9.70;99.90;;;;;;5054122;28;20608;-71
2022/09/20 06:54:19;;;;;;;29.63;14.97;;;9.80;99.90;;;;;;5055176;28;20174;-71
2022/09/20 06:56:46;;;;;;;24.23;14.67;;;9.80;99.90;;;;;;5053274;28;20230;-71
2022/09/20 06:59:14;;;;;;;26.00;14.13;;;9.90;99.90;;;;;;5052952;28;20203;-71
2022/09/20 07:01:40;;;;;;;24.83;14.03;;;10.00;99.90;;;;;;5054868;28;20166;-71
2022/09/20 07:04:08;;;;;;;26.47;15.03;;;10.00;99.90;;;;;;5054968;28;20175;-71
2022/09/20 07:06:34;;;;;;;25.13;13.73;;;10.10;99.90;;;;;;5069638;28;20710;-71
2022/09/20 07:09:00;;;;;;;31.23;15.67;;;10.10;99.90;;;;;;5093706;28;20203;-71
2022/09/20 07:11:26;;;;;;;22.90;13.30;;;10.10;99.90;;;;;;5087808;28;20273;-71
2022/09/20 07:13:54;;;;;;;25.80;15.43;;;10.20;99.90;;;;;;5055107;28;20604;-71
2022/09/20 07:16:20;;;;;;;22.10;13.67;;;10.20;99.90;;;;;;5053215;28;20203;-71
2022/09/20 07:18:47;;;;;;;26.83;14.77;;;10.20;99.90;;;;;;5053344;28;20194;-71
2022/09/20 07:21:15;;;;;;;24.53;14.17;;;10.30;99.90;;;;;;5054594;28;20175;-71
2022/09/20 07:23:41;;;;;;;24.43;13.70;;;10.30;99.90;;;;;;5054577;28;20264;-71
2022/09/20 07:26:17;;;;;;;28.07;12.40;;;10.40;99.90;;;;;;5054500;28;20236;-71
2022/09/20 07:28:43;;;;;;;26.10;11.77;;;10.50;99.90;;;;;;5054432;28;20217;-71
2022/09/20 07:31:09;;;;;;;20.53;10.90;;;10.60;99.90;;;;;;5054240;28;20179;-71
2022/09/20 07:33:35;;;;;;;23.43;11.30;;;10.70;99.90;;;;;;5054917;28;20537;-71
2022/09/20 07:36:01;;;;;;;20.73;9.40;;;10.70;99.90;;;;;;5060200;28;20205;-71
2022/09/20 07:38:27;;;;;;;19.50;9.83;;;10.80;99.90;;;;;;5093164;28;20197;-70
2022/09/20 07:40:58;;;;;;;22.63;9.87;;;10.80;99.90;;;;;;5094863;28;20238;-71
2022/09/20 07:43:24;;;;;;;20.43;9.83;;;10.90;99.90;;;;;;5052949;28;20167;-71
2022/09/20 07:45:54;;;;;;;12.27;8.50;;;11.00;99.90;;;;;;5054118;28;20265;-71
2022/09/20 07:48:34;;;;;;;14.67;9.40;;;11.10;99.90;;;;;;5054390;28;20224;-70
2022/09/20 07:51:05;;;;;;;18.57;8.53;;;11.20;99.90;;;;;;5052907;28;20623;-70
2022/09/20 07:53:31;;;;;;;13.63;8.37;;;11.20;99.90;;;;;;5054019;28;20162;-71
2022/09/20 07:56:10;;;;;;;13.37;8.03;;;11.20;99.90;;;;;;5054236;28;20202;-71
2022/09/20 07:58:36;;;;;;;16.83;8.23;;;11.40;99.90;;;;;;5067659;28;20205;-71
2022/09/20 08:01:05;;;;;;;13.23;6.90;;;11.60;99.90;;;;;;5072217;28;20177;-71
2022/09/20 08:03:33;;;;;;;10.33;6.70;;;11.80;99.90;;;;;;5074061;28;20173;-71
2022/09/20 08:06:00;;;;;;;15.70;6.40;;;12.00;99.90;;;;;;5076544;28;20177;-71
2022/09/20 08:08:27;;;;;;;16.38;6.47;;;12.20;99.90;;;;;;5092308;28;20201;-71
2022/09/20 08:11:01;;;;;;;14.20;6.47;;;12.30;99.90;;;;;;5094122;28;20609;-71
2022/09/20 08:13:28;;;;;;;13.73;5.40;;;12.30;99.90;;;;;;5053579;28;20170;-71
2022/09/20 08:16:04;;;;;;;8.77;5.72;;;12.20;99.90;;;;;;5053337;28;20198;-71
2022/09/20 08:18:30;;;;;;;10.90;5.03;;;12.20;99.90;;;;;;5052393;28;20250;-71
2022/09/20 08:20:56;;;;;;;11.25;5.65;;;12.20;99.90;;;;;;5053617;28;20174;-71
2022/09/20 08:23:22;;;;;;;9.93;4.28;;;12.10;99.90;;;;;;5052386;28;20313;-71
2022/09/20 08:25:48;;;;;;;12.45;4.72;;;12.10;99.90;;;;;;5052284;28;20186;-71
2022/09/20 08:28:14;;;;;;;7.20;4.68;;;12.10;99.90;;;;;;5064192;28;20177;-71
2022/09/20 08:30:40;;;;;;;11.75;4.20;;;12.20;99.90;;;;;;5073356;28;20561;-71
2022/09/20 08:33:06;;;;;;;10.50;4.47;;;12.20;99.90;;;;;;5073452;28;20174;-71
2022/09/20 08:35:35;;;;;;;8.85;4.28;;;12.20;99.90;;;;;;5073545;28;20258;-71
2022/09/20 08:38:01;;;;;;;6.95;4.30;;;12.20;99.90;;;;;;5091647;28;20242;-71
2022/09/20 08:40:29;;;;;;;9.20;4.05;;;12.30;99.90;;;;;;5092156;28;20669;-71
2022/09/20 08:42:56;;;;;;;13.48;5.75;;;12.30;99.90;;;;;;5059930;28;20190;-70
2022/09/20 08:45:25;;;;;;;7.20;4.17;;;12.40;99.90;;;;;;5053204;28;20178;-71
2022/09/20 08:47:57;;;;;;;20.88;9.10;;;12.50;99.90;;;;;;5053476;28;20171;-71
2022/09/20 08:50:24;;;;;;;7.22;4.00;;;12.60;99.90;;;;;;5054638;28;20214;-71
2022/09/20 08:52:54;;;;;;;11.93;4.10;;;12.70;99.90;;;;;;5053331;28;20174;-71
2022/09/20 08:55:22;;;;;;;4.97;3.42;;;12.70;99.90;;;;;;5051976;28;20684;-71
2022/09/20 08:57:55;;;;;;;7.47;3.58;;;12.80;99.90;;;;;;5053226;28;20269;-71
2022/09/20 09:00:31;;;;;;;10.80;4.47;;;12.80;99.90;;;;;;5052942;28;20201;-70
2022/09/20 09:03:18;;;;;;;8.93;4.32;;;12.90;99.90;;;;;;5053197;28;20158;-71
2022/09/20 09:05:45;;;;;;;9.20;3.97;;;12.90;99.90;;;;;;5052898;28;20190;-71
2022/09/20 09:08:20;;;;;;;10.30;3.85;;;13.00;99.90;;;;;;5092136;28;20265;-71
2022/09/20 09:10:53;;;;;;;7.97;3.50;;;13.00;99.90;;;;;;5092178;28;20208;-71
2022/09/20 09:14:00;;;;;;;7.95;3.58;;;12.90;99.90;;;;;;5052698;28;20190;-71
2022/09/20 09:16:28;;;;;;;4.75;3.50;;;12.90;99.90;;;;;;5052439;28;20217;-71
2022/09/20 09:18:54;;;;;;;6.00;3.75;;;12.90;99.90;;;;;;5052967;28;20230;-71
2022/09/20 09:21:24;;;;;;;8.27;3.97;;;12.90;99.90;;;;;;5054641;28;20170;-71
2022/09/20 09:24:03;;;;;;;7.13;3.72;;;12.90;99.90;;;;;;5056840;28;20179;-71
2022/09/20 09:26:38;;;;;;;9.20;3.88;;;13.10;99.90;;;;;;5057269;28;20167;-71
2022/09/20 09:29:22;;;;;;;6.63;3.67;;;13.20;99.90;;;;;;5055858;28;20554;-71
2022/09/20 09:31:53;;;;;;;5.95;3.42;;;13.40;99.90;;;;;;5055559;28;20265;-70
2022/09/20 09:34:24;;;;;;;11.90;3.90;;;13.30;99.90;;;;;;5056754;28;20231;-71
2022/09/20 09:36:51;;;;;;;6.75;3.70;;;13.40;99.90;;;;;;5055115;28;20198;-71
2022/09/20 09:39:27;;;;;;;11.15;3.80;;;13.50;99.90;;;;;;5057178;28;20190;-71
2022/09/20 09:41:53;;;;;;;7.75;3.38;;;13.50;99.90;;;;;;5062863;28;20276;-71
2022/09/20 09:44:32;;;;;;;8.02;3.60;;;13.60;99.90;;;;;;5075343;28;20231;-71
2022/09/20 09:46:59;;;;;;;12.10;4.28;;;13.70;99.90;;;;;;5075286;28;20188;-71
2022/09/20 09:49:35;;;;;;;6.25;3.35;;;13.70;99.90;;;;;;5075575;28;20225;-71
2022/09/20 09:52:14;;;;;;;6.30;3.40;;;13.60;99.90;;;;;;5076658;28;20186;-71
2022/09/20 09:54:46;;;;;;;6.78;3.20;;;13.50;99.90;;;;;;5075189;28;20177;-71
2022/09/20 09:57:54;;;;;;;4.10;3.00;;;13.50;99.90;;;;;;5073992;28;20276;-71
2022/09/20 10:00:25;;;;;;;5.22;3.08;;;13.40;99.90;;;;;;5056176;28;20269;-71
2022/09/20 10:03:11;;;;;;;6.13;3.10;;;13.40;99.90;;;;;;5056331;28;20151;-71
2022/09/20 10:05:46;;;;;;;7.97;3.10;;;13.30;99.90;;;;;;5056523;28;20163;-71
2022/09/20 10:08:27;;;;;;;6.22;3.22;;;13.50;99.90;;;;;;5095190;28;20668;-71
2022/09/20 10:11:27;;;;;;;5.72;3.00;;;13.60;99.90;;;;;;5095098;28;20204;-71
2022/09/20 10:14:11;;;;;;;6.82;2.88;;;13.80;99.90;;;;;;5055944;28;20180;-71
2022/09/20 10:16:49;;;;;;;7.00;3.20;;;13.90;99.90;;;;;;5054909;28;20226;-71
2022/09/20 10:19:22;;;;;;;8.90;3.28;;;13.90;99.90;;;;;;5054952;28;20290;-71
2022/09/20 10:22:07;;;;;;;9.98;3.60;;;13.80;99.90;;;;;;5056088;28;20257;-71
2022/09/20 10:24:59;;;;;;;7.78;3.35;;;13.80;99.90;;;;;;5056369;28;20161;-71
2022/09/20 10:27:47;;;;;;;8.00;3.10;;;13.90;99.90;;;;;;5060054;28;20181;-71
2022/09/20 10:30:17;;;;;;;4.68;2.97;;;13.90;99.90;;;;;;5075577;28;20189;-71
2022/09/20 10:32:49;;;;;;;7.60;2.90;;;13.70;99.90;;;;;;5075182;28;20185;-71
2022/09/20 10:35:23;;;;;;;5.25;3.00;;;13.70;99.90;;;;;;5074485;28;20208;-71
2022/09/20 10:38:15;;;;;;;5.68;2.85;;;14.00;99.90;;;;;;5093430;28;20248;-71
2022/09/20 10:44:24;;;;;;;4.78;2.60;;;14.40;99.90;;;;;;5088668;28;20196;-71
2022/09/20 10:47:10;;;;;;;4.82;2.70;;;14.60;99.90;;;;;;5055079;28;20163;-71
2022/09/20 10:50:28;;;;;;;5.22;2.92;;;14.60;99.90;;;;;;5053863;28;20205;-71
2022/09/20 10:53:22;;;;;;;3.80;2.70;;;14.60;99.90;;;;;;5036481;28;20608;-71
2022/09/20 10:56:09;;;;;;;11.50;2.90;;;14.70;99.90;;;;;;5055297;28;20651;-71
2022/09/20 10:58:47;;;;;;;5.18;3.30;;;14.60;99.90;;;;;;5063940;28;20613;-71
2022/09/20 11:01:33;;;;;;;7.45;2.80;;;14.70;99.90;;;;;;5054806;28;20155;-71
2022/09/20 11:04:32;;;;;;;5.93;3.00;;;14.70;99.90;;;;;;5070429;28;20174;-71
2022/09/20 11:07:15;;;;;;;3.80;2.80;;;14.80;99.90;;;;;;5076264;28;20279;-71
2022/09/20 11:09:56;;;;;;;4.47;2.88;;;14.80;99.90;;;;;;5095413;28;20189;-71
2022/09/20 11:12:37;;;;;;;9.00;3.35;;;14.70;99.90;;;;;;5072404;28;20186;-71
2022/09/20 11:15:13;;;;;;;6.63;3.20;;;14.60;99.90;;;;;;5055306;28;20202;-71
2022/09/20 11:18:01;;;;;;;6.80;2.72;;;14.50;99.90;;;;;;5054872;28;20193;-71
2022/09/20 11:20:32;;;;;;;11.93;2.88;;;14.50;99.90;;;;;;5053457;28;20194;-71
2022/09/20 11:23:05;;;;;;;5.80;3.10;;;14.40;99.90;;;;;;5054869;28;20233;-71
2022/09/20 11:25:43;;;;;;;5.25;3.10;;;14.60;99.90;;;;;;5054531;28;20273;-70
2022/09/20 11:28:34;;;;;;;4.43;2.92;;;14.50;99.90;;;;;;5055138;28;20178;-70
2022/09/20 11:31:09;;;;;;;6.38;2.90;;;14.50;99.90;;;;;;5050138;28;20235;-69
2022/09/20 11:33:52;;;;;;;5.50;2.95;;;14.50;99.90;;;;;;5055041;28;20245;-69
2022/09/20 11:36:26;;;;;;;4.78;2.60;;;14.50;99.90;;;;;;5063341;28;20204;-69
2022/09/20 11:39:14;;;;;;;8.35;2.92;;;14.50;99.90;;;;;;5094516;28;20225;-69
2022/09/20 11:41:40;;;;;;;4.22;2.67;;;14.60;99.90;;;;;;5082743;28;20655;-70
2022/09/20 11:44:11;;;;;;;3.72;2.85;;;14.60;99.90;;;;;;5053707;28;20658;-69
2022/09/20 11:47:01;;;;;;;8.70;2.80;;;14.60;99.90;;;;;;5052592;28;20174;-69
2022/09/20 11:49:50;;;;;;;4.88;2.80;;;14.70;99.90;;;;;;5053934;28;20201;-69
2022/09/20 11:52:43;;;;;;;6.28;3.05;;;14.60;99.90;;;;;;5052825;28;20236;-69
2022/09/20 11:55:09;;;;;;;5.22;2.90;;;14.70;99.90;;;;;;5054296;28;20244;-69
2022/09/20 11:57:36;;;;;;;4.32;2.70;;;14.60;99.90;;;;;;5052921;28;20646;-71
2022/09/20 12:00:06;;;;;;;5.28;2.80;;;14.70;99.90;;;;;;5053743;28;20209;-71
2022/09/20 12:02:51;;;;;;;7.10;2.50;;;14.80;99.90;;;;;;5052800;28;20162;-71
2022/09/20 12:05:36;;;;;;;3.08;2.65;;;14.90;99.90;;;;;;5054730;28;20245;-71
2022/09/20 12:08:15;;;;;;;5.15;2.63;;;15.00;99.90;;;;;;5093679;28;20177;-71
2022/09/20 12:10:41;;;;;;;6.55;2.90;;;15.00;99.90;;;;;;5094826;28;20522;-71
2022/09/20 12:13:21;;;;;;;5.57;3.00;;;15.00;99.90;;;;;;5058607;28;20182;-71
2022/09/20 12:16:12;;;;;;;7.72;2.70;;;15.00;99.90;;;;;;5052433;28;20724;-70
2022/09/20 12:19:00;;;;;;;5.45;3.00;;;15.10;99.90;;;;;;5053807;28;20202;-71
2022/09/20 12:21:26;;;;;;;6.35;2.88;;;15.00;99.90;;;;;;5053638;28;20212;-71
2022/09/20 12:23:51;;;;;;;7.65;2.80;;;15.00;99.90;;;;;;5054241;28;20166;-71
2022/09/20 12:26:20;;;;;;;7.03;3.15;;;15.20;99.90;;;;;;5053538;28;20741;-71
2022/09/20 12:28:54;;;;;;;6.15;2.75;;;15.50;99.90;;;;;;5053323;28;20213;-71
2022/09/20 12:31:29;;;;;;;5.82;3.15;;;15.60;99.90;;;;;;5052305;28;20181;-71
2022/09/20 12:33:58;;;;;;;3.50;2.45;;;16.00;99.90;;;;;;5052359;28;20354;-71
2022/09/20 12:36:26;;;;;;;9.98;2.60;;;16.30;99.90;;;;;;5064252;28;20212;-71
2022/09/20 12:39:04;;;;;;;4.88;2.50;;;16.30;99.90;;;;;;5093845;28;20581;-71
2022/09/20 12:41:47;;;;;;;3.95;2.55;;;16.40;99.90;;;;;;5083432;28;20222;-71
2022/09/20 12:44:39;;;;;;;2.95;2.53;;;16.70;99.90;;;;;;5053316;28;20161;-70
2022/09/20 12:47:10;;;;;;;7.68;2.70;;;17.10;99.90;;;;;;5052694;28;20190;-70
2022/09/20 12:52:49;;;;;;;3.58;2.28;;;16.80;99.90;;;;;;5053281;28;20166;-71
2022/09/20 12:55:48;;;;;;;3.03;2.30;;;16.80;99.90;;;;;;5054271;28;20221;-71
2022/09/20 12:58:14;;;;;;;5.25;2.42;;;16.90;99.90;;;;;;5055934;28;20228;-71
2022/09/20 13:00:56;;;;;;;3.78;2.35;;;16.80;99.90;;;;;;5057297;28;20174;-71
2022/09/20 13:03:34;;;;;;;5.63;2.45;;;16.30;99.90;;;;;;5057017;28;20204;-71
2022/09/20 13:06:05;;;;;;;2.53;2.28;;;15.90;99.90;;;;;;5062403;28;20169;-71
2022/09/20 13:08:41;;;;;;;3.55;2.40;;;15.80;99.90;;;;;;5097583;28;20220;-71
2022/09/20 13:11:12;;;;;;;5.43;2.47;;;15.60;99.90;;;;;;5093535;28;20555;-71
2022/09/20 13:13:58;;;;;;;6.40;2.50;;;15.60;99.90;;;;;;5056918;28;20241;-71
2022/09/20 13:16:38;;;;;;;3.92;2.55;;;15.50;99.90;;;;;;5055346;28;20225;-71
2022/09/20 13:19:16;;;;;;;4.40;2.60;;;15.40;99.90;;;;;;5055617;28;20658;-71
2022/09/20 13:22:07;;;;;;;5.45;2.70;;;15.30;99.90;;;;;;5055603;28;20650;-71
2022/09/20 13:24:45;;;;;;;4.28;2.70;;;15.20;99.90;;;;;;5057140;28;20194;-70
2022/09/20 13:27:17;;;;;;;6.05;2.45;;;15.00;99.90;;;;;;5057256;28;20193;-71
2022/09/20 13:29:44;;;;;;;3.55;2.33;;;15.00;99.90;;;;;;5056572;28;20197;-71
2022/09/20 13:32:23;;;;;;;6.00;2.78;;;15.00;99.90;;;;;;5056508;28;20201;-71
2022/09/20 13:35:06;;;;;;;3.65;2.90;;;15.00;99.90;;;;;;5055458;28;20201;-71
2022/09/20 13:37:32;;;;;;;4.47;2.53;;;15.40;99.90;;;;;;5086153;28;20184;-71
2022/09/20 13:39:58;;;;;;;2.78;2.50;;;15.90;99.90;;;;;;5096719;28;20205;-71
2022/09/20 13:42:26;;;;;;;6.25;2.95;;;16.30;99.90;;;;;;5073208;28;20217;-71
2022/09/20 13:44:52;;;;;;;3.85;2.70;;;16.40;99.90;;;;;;5055210;28;20204;-71
2022/09/20 13:47:25;;;;;;;3.00;2.33;;;16.70;99.90;;;;;;5056263;28;20178;-71
2022/09/20 13:49:51;;;;;;;6.40;2.60;;;16.70;99.90;;;;;;5056372;28;20678;-71
2022/09/20 13:52:59;;;;;;;3.60;2.45;;;16.80;99.90;;;;;;5055108;28;20178;-71